createdAt,value
2022-10-29T00:02:16.508Z,87.86
2022-10-29T00:04:42.814Z,87.77
2022-10-29T00:07:09.113Z,87.83
2022-10-29T00:09:35.557Z,88.03
2022-10-29T00:12:01.907Z,87.75
2022-10-29T00:14:28.458Z,87.25
2022-10-29T00:16:57.202Z,87.74
2022-10-29T00:19:23.611Z,87.65
2022-10-29T00:21:51.041Z,88.25
2022-10-29T00:24:17.637Z,88.42
2022-10-29T00:26:44.034Z,88.54
2022-10-29T00:29:10.369Z,88.76
2022-10-29T00:31:36.795Z,88.52
2022-10-29T00:34:03.182Z,88.68
2022-10-29T00:36:30.271Z,88.90
2022-10-29T00:38:57.047Z,88.90
2022-10-29T00:41:26.839Z,88.73
2022-10-29T00:44:18.806Z,89.12
2022-10-29T00:46:49.877Z,88.73
2022-10-29T00:49:17.409Z,88.30
2022-10-29T00:51:45.844Z,88.79
2022-10-29T00:54:15.006Z,88.74
2022-10-29T00:57:06.603Z,89.04
2022-10-29T00:59:33.154Z,88.98
2022-10-29T01:01:59.518Z,89.11
2022-10-29T01:04:26.122Z,88.90
2022-10-29T01:06:53.183Z,88.75
2022-10-29T01:09:19.500Z,88.43
2022-10-29T01:12:01.033Z,88.64
2022-10-29T01:15:03.745Z,89.01
2022-10-29T01:17:33.005Z,89.51
2022-10-29T01:20:23.124Z,90.03
2022-10-29T01:23:20.222Z,89.96
2022-10-29T01:26:07.874Z,89.69
2022-10-29T01:29:01.445Z,89.76
2022-10-29T01:31:37.860Z,89.11
2022-10-29T01:34:13.383Z,89.05
2022-10-29T01:37:01.299Z,89.10
2022-10-29T01:39:53.196Z,88.85
2022-10-29T01:42:26.680Z,88.97
2022-10-29T01:45:08.553Z,88.70
2022-10-29T01:47:44.042Z,88.68
2022-10-29T01:50:15.266Z,89.10
2022-10-29T01:52:42.930Z,89.28
2022-10-29T01:55:09.449Z,89.68
2022-10-29T01:57:39.817Z,89.44
2022-10-29T02:00:06.438Z,89.55
2022-10-29T02:03:14.798Z,89.79
2022-10-29T02:06:09.798Z,90.11
2022-10-29T02:08:52.824Z,90.15
2022-10-29T02:11:29.689Z,89.93
2022-10-29T02:14:05.934Z,89.62
2022-10-29T02:16:33.465Z,89.77
2022-10-29T02:19:00.397Z,89.50
2022-10-29T02:21:26.833Z,89.47
2022-10-29T02:23:53.146Z,89.62
2022-10-29T02:26:19.522Z,89.60
2022-10-29T02:28:46.008Z,89.96
2022-10-29T02:31:12.407Z,89.96
2022-10-29T02:33:38.725Z,90.12
2022-10-29T02:36:05.385Z,90.07
2022-10-29T02:38:31.703Z,90.16
2022-10-29T02:40:58.005Z,89.87
2022-10-29T02:43:24.358Z,90.02
2022-10-29T02:45:50.901Z,89.96
2022-10-29T02:48:17.221Z,90.23
2022-10-29T02:50:43.646Z,90.76
2022-10-29T02:53:09.949Z,91.00
2022-10-29T02:55:36.289Z,91.34
2022-10-29T02:58:02.625Z,91.10
2022-10-29T03:00:28.923Z,91.00
2022-10-29T03:02:55.681Z,90.69
2022-10-29T03:05:22.391Z,90.78
2022-10-29T03:07:48.707Z,90.54
2022-10-29T03:10:15.111Z,90.66
2022-10-29T03:12:41.444Z,90.91
2022-10-29T03:15:08.268Z,91.07
2022-10-29T03:17:34.572Z,91.03
2022-10-29T03:20:00.994Z,91.47
2022-10-29T03:22:27.309Z,91.38
2022-10-29T03:24:53.597Z,91.18
2022-10-29T03:27:20.017Z,91.09
2022-10-29T03:29:46.313Z,91.44
2022-10-29T03:32:12.617Z,91.37
2022-10-29T03:34:38.975Z,91.15
2022-10-29T03:37:05.319Z,91.16
2022-10-29T03:39:31.629Z,91.39
2022-10-29T03:41:57.962Z,91.43
2022-10-29T03:44:24.282Z,91.64
2022-10-29T03:46:50.584Z,91.65
2022-10-29T03:49:16.942Z,91.82
2022-10-29T03:51:43.245Z,91.74
2022-10-29T03:54:09.537Z,91.79
2022-10-29T03:56:35.857Z,92.12
2022-10-29T03:59:02.195Z,92.19
2022-10-29T04:01:28.630Z,92.34
2022-10-29T04:03:55.074Z,92.21
2022-10-29T04:06:21.378Z,92.52
2022-10-29T04:08:47.679Z,92.39
2022-10-29T04:11:14.268Z,92.19
2022-10-29T04:13:40.812Z,92.27
2022-10-29T04:16:07.385Z,92.25
2022-10-29T04:18:34.090Z,92.31
2022-10-29T04:29:24.297Z,92.14
2022-10-29T04:31:50.831Z,91.98
2022-10-29T04:34:17.289Z,92.32
2022-10-29T04:36:43.672Z,92.17
2022-10-29T04:39:10.062Z,92.13
2022-10-29T04:41:36.389Z,91.82
2022-10-29T04:44:02.759Z,91.53
2022-10-29T04:46:29.225Z,91.60
2022-10-29T04:48:55.570Z,91.40
2022-10-29T04:51:24.230Z,91.56
2022-10-29T04:53:50.718Z,91.64
2022-10-29T04:56:17.503Z,91.33
2022-10-29T04:58:43.872Z,91.57
2022-10-29T05:01:10.289Z,91.65
2022-10-29T05:03:36.673Z,91.57
2022-10-29T05:06:05.035Z,91.57
2022-10-29T05:08:31.643Z,91.29
2022-10-29T05:10:57.939Z,91.40
2022-10-29T05:13:24.249Z,91.31
2022-10-29T05:15:53.334Z,91.51
2022-10-29T05:18:20.082Z,91.54
2022-10-29T05:20:46.472Z,91.67
2022-10-29T05:23:12.822Z,91.70
2022-10-29T05:25:40.607Z,91.38
2022-10-29T05:28:11.541Z,91.50
2022-10-29T05:30:38.292Z,91.53
2022-10-29T05:33:12.032Z,91.52
2022-10-29T05:35:38.496Z,91.59
2022-10-29T05:38:05.463Z,91.58
2022-10-29T05:40:31.950Z,91.75
2022-10-29T05:42:59.231Z,91.39
2022-10-29T05:45:25.799Z,91.68
2022-10-29T05:47:57.345Z,91.56
2022-10-29T05:50:24.122Z,91.70
2022-10-29T05:52:57.612Z,91.60
2022-10-29T05:55:25.094Z,91.69
2022-10-29T05:58:05.735Z,91.72
2022-10-29T06:00:35.134Z,92.03
2022-10-29T06:03:01.880Z,91.96
2022-10-29T06:05:28.687Z,91.88
2022-10-29T06:07:56.751Z,91.64
2022-10-29T06:10:25.226Z,91.87
2022-10-29T06:12:51.775Z,91.68
2022-10-29T06:15:18.806Z,91.96
2022-10-29T06:17:46.226Z,91.99
2022-10-29T06:20:16.739Z,91.82
2022-10-29T06:22:43.218Z,91.89
2022-10-29T06:25:10.039Z,91.87
2022-10-29T06:27:37.072Z,92.03
2022-10-29T06:30:05.156Z,92.10
2022-10-29T06:32:31.681Z,91.99
2022-10-29T06:34:58.129Z,92.06
2022-10-29T06:37:24.457Z,91.89
2022-10-29T06:39:50.829Z,92.27
2022-10-29T06:42:17.276Z,91.86
2022-10-29T06:44:43.614Z,92.28
2022-10-29T06:47:09.978Z,92.26
2022-10-29T06:49:36.403Z,92.14
2022-10-29T06:52:02.770Z,92.38
2022-10-29T06:54:29.093Z,92.36
2022-10-29T06:56:55.603Z,92.36
2022-10-29T06:59:23.430Z,92.45
2022-10-29T07:01:49.984Z,92.11
2022-10-29T07:04:18.308Z,92.60
2022-10-29T07:06:44.650Z,92.61
2022-10-29T07:09:11.133Z,92.72
2022-10-29T07:11:37.525Z,92.95
2022-10-29T07:14:05.849Z,92.61
2022-10-29T07:16:32.215Z,92.73
2022-10-29T07:18:58.575Z,92.91
2022-10-29T07:21:24.917Z,92.95
2022-10-29T07:23:51.248Z,92.66
2022-10-29T07:26:17.555Z,92.66
2022-10-29T07:28:43.870Z,92.65
2022-10-29T07:31:10.206Z,92.75
2022-10-29T07:33:36.501Z,92.98
2022-10-29T07:36:02.919Z,92.70
2022-10-29T07:38:29.230Z,92.80
2022-10-29T07:40:55.592Z,92.55
2022-10-29T07:43:22.491Z,92.79
2022-10-29T07:45:50.536Z,92.50
2022-10-29T07:48:18.242Z,92.72
2022-10-29T07:50:44.685Z,92.60
2022-10-29T07:53:11.219Z,92.54
2022-10-29T07:55:37.892Z,92.43
2022-10-29T07:58:07.642Z,92.37
2022-10-29T08:00:36.621Z,92.66
2022-10-29T08:03:03.916Z,92.47
2022-10-29T08:05:30.865Z,92.47
2022-10-29T08:07:58.115Z,93.35
2022-10-29T08:10:25.325Z,93.01
2022-10-29T08:12:53.904Z,93.98
2022-10-29T08:15:20.576Z,93.75
2022-10-29T08:17:46.992Z,94.03
2022-10-29T08:20:14.789Z,93.65
2022-10-29T08:22:41.311Z,93.86
2022-10-29T08:25:08.287Z,93.90
2022-10-29T08:27:34.803Z,93.52
2022-10-29T08:30:01.394Z,93.10
2022-10-29T08:32:27.701Z,93.07
2022-10-29T08:34:54.164Z,93.17
2022-10-29T08:37:20.457Z,92.21
2022-10-29T08:39:46.770Z,92.35
2022-10-29T08:42:34.555Z,89.22
2022-10-29T08:45:14.672Z,86.18
2022-10-29T08:47:59.867Z,83.60
2022-10-29T08:50:33.212Z,79.48
2022-10-29T08:55:48.277Z,79.18
2022-10-29T08:58:27.790Z,77.54
2022-10-29T09:00:57.849Z,77.78
2022-10-29T09:03:26.695Z,80.53
2022-10-29T09:06:07.971Z,81.04
2022-10-29T09:08:43.538Z,81.54
2022-10-29T09:11:46.075Z,82.34
2022-10-29T09:14:40.778Z,83.03
2022-10-29T09:17:29.575Z,83.33
2022-10-29T09:20:17.131Z,84.01
2022-10-29T09:23:05.025Z,84.47
2022-10-29T09:25:38.423Z,85.02
2022-10-29T09:28:42.748Z,85.21
2022-10-29T09:31:37.513Z,85.36
2022-10-29T09:34:12.092Z,85.81
2022-10-29T09:36:39.437Z,85.70
2022-10-29T09:39:37.397Z,85.99
2022-10-29T09:42:10.862Z,86.15
2022-10-29T09:44:53.125Z,85.88
2022-10-29T09:47:37.415Z,85.83
2022-10-29T09:50:30.485Z,85.96
2022-10-29T09:52:57.078Z,86.03
2022-10-29T09:55:27.771Z,86.18
2022-10-29T09:57:57.062Z,86.29
2022-10-29T10:00:26.774Z,86.14
2022-10-29T10:03:00.794Z,85.78
2022-10-29T10:05:30.361Z,85.56
2022-10-29T10:08:14.342Z,85.89
2022-10-29T10:11:07.067Z,85.33
2022-10-29T10:13:50.108Z,86.00
2022-10-29T10:16:24.005Z,86.35
2022-10-29T10:18:50.388Z,85.86
2022-10-29T10:21:27.982Z,86.42
2022-10-29T10:23:57.512Z,85.91
2022-10-29T10:26:44.552Z,85.17
2022-10-29T10:29:11.849Z,85.54
2022-10-29T10:31:39.614Z,85.45
2022-10-29T10:34:19.104Z,84.71
2022-10-29T10:37:05.051Z,84.49
2022-10-29T10:39:36.703Z,83.63
2022-10-29T10:42:16.892Z,83.70
2022-10-29T10:44:48.162Z,83.96
2022-10-29T10:47:18.957Z,82.16
2022-10-29T10:49:45.786Z,82.98
2022-10-29T10:52:28.516Z,83.16
2022-10-29T10:54:59.493Z,82.48
2022-10-29T10:57:30.957Z,82.56
2022-10-29T10:59:59.832Z,82.27
2022-10-29T11:02:54.562Z,82.75
2022-10-29T11:05:23.268Z,82.43
2022-10-29T11:08:10.312Z,81.28
2022-10-29T11:10:48.111Z,80.75
2022-10-29T11:13:20.896Z,81.63
2022-10-29T11:16:04.432Z,80.79
2022-10-29T11:18:36.435Z,80.97
2022-10-29T11:21:11.768Z,81.66
2022-10-29T11:23:53.970Z,80.23
2022-10-29T11:26:30.253Z,78.61
2022-10-29T11:29:15.646Z,80.89
2022-10-29T11:32:00.653Z,79.79
2022-10-29T11:34:45.369Z,78.49
2022-10-29T11:37:27.763Z,79.35
2022-10-29T11:40:02.459Z,78.76
2022-10-29T11:42:29.265Z,78.58
2022-10-29T11:44:58.725Z,77.28
2022-10-29T11:47:58.762Z,78.02
2022-10-29T11:50:39.278Z,77.73
2022-10-29T11:53:24.942Z,77.85
2022-10-29T11:56:08.553Z,78.78
2022-10-29T11:58:40.823Z,78.53
2022-10-29T12:01:34.253Z,78.04
2022-10-29T12:04:27.306Z,79.00
2022-10-29T12:07:11.973Z,78.04
2022-10-29T12:09:53.457Z,78.27
2022-10-29T12:12:44.730Z,78.03
2022-10-29T12:15:26.254Z,77.83
2022-10-29T12:18:26.548Z,77.82
2022-10-29T12:21:11.821Z,77.15
2022-10-29T12:24:04.148Z,75.83
2022-10-29T12:26:44.660Z,74.18
2022-10-29T12:29:15.779Z,75.39
2022-10-29T12:32:07.255Z,74.00
2022-10-29T12:34:50.517Z,75.46
2022-10-29T12:37:44.726Z,74.36
2022-10-29T12:40:20.330Z,75.48
2022-10-29T12:42:49.177Z,73.13
2022-10-29T12:46:14.300Z,74.18
2022-10-29T12:48:49.727Z,74.30
2022-10-29T12:51:23.986Z,74.49
2022-10-29T12:54:15.149Z,74.53
2022-10-29T12:56:45.045Z,74.30
2022-10-29T12:59:23.335Z,74.41
2022-10-29T13:05:11.343Z,74.27
2022-10-29T13:07:59.277Z,74.30
2022-10-29T13:10:47.725Z,75.46
2022-10-29T13:13:13.957Z,75.57
2022-10-29T13:15:44.056Z,76.10
2022-10-29T13:18:26.396Z,76.47
2022-10-29T13:20:54.382Z,76.43
2022-10-29T13:23:23.834Z,76.00
2022-10-29T13:25:51.566Z,75.86
2022-10-29T13:28:17.799Z,75.28
2022-10-29T13:30:46.632Z,75.49
2022-10-29T13:33:28.106Z,75.70
2022-10-29T13:36:16.840Z,75.65
2022-10-29T13:39:06.189Z,75.55
2022-10-29T13:41:44.593Z,75.77
2022-10-29T13:44:13.397Z,75.39
2022-10-29T13:47:04.116Z,76.09
2022-10-29T13:49:37.487Z,75.62
2022-10-29T13:52:15.982Z,75.53
2022-10-29T13:54:56.583Z,76.12
2022-10-29T13:57:34.067Z,76.31
2022-10-29T14:00:12.531Z,76.60
2022-10-29T14:02:41.861Z,76.49
2022-10-29T14:05:12.570Z,76.56
2022-10-29T14:07:51.826Z,76.86
2022-10-29T14:10:24.259Z,76.94
2022-10-29T14:12:57.355Z,76.86
2022-10-29T14:15:24.163Z,77.74
2022-10-29T14:17:50.657Z,77.35
2022-10-29T14:20:26.307Z,77.43
2022-10-29T14:22:53.107Z,77.69
2022-10-29T14:25:35.594Z,77.74
2022-10-29T14:28:18.883Z,77.86
2022-10-29T14:30:48.055Z,78.27
2022-10-29T14:33:25.986Z,77.90
2022-10-29T14:36:15.697Z,78.34
2022-10-29T14:38:56.963Z,78.93
2022-10-29T14:41:25.594Z,79.47
2022-10-29T14:44:05.196Z,79.60
2022-10-29T14:46:34.755Z,79.90
2022-10-29T14:49:14.506Z,79.00
2022-10-29T14:51:49.575Z,79.01
2022-10-29T14:54:21.626Z,79.60
2022-10-29T14:56:52.774Z,79.74
2022-10-29T14:59:26.425Z,79.29
2022-10-29T15:02:05.737Z,79.33
2022-10-29T15:05:07.203Z,79.38
2022-10-29T15:07:35.843Z,79.77
2022-10-29T15:10:08.102Z,80.08
2022-10-29T15:12:36.910Z,80.51
2022-10-29T15:15:15.297Z,80.42
2022-10-29T15:17:50.661Z,80.54
2022-10-29T15:20:32.091Z,80.71
2022-10-29T15:22:59.341Z,80.86
2022-10-29T15:25:37.603Z,80.51
2022-10-29T15:28:08.794Z,80.12
2022-10-29T15:30:37.629Z,80.32
2022-10-29T15:33:08.061Z,80.42
2022-10-29T15:35:49.055Z,80.44
2022-10-29T15:38:52.052Z,80.57
2022-10-29T15:41:39.017Z,80.70
2022-10-29T15:44:40.190Z,80.64
2022-10-29T15:47:28.254Z,80.85
2022-10-29T15:49:55.120Z,80.87
2022-10-29T15:52:26.812Z,81.14
2022-10-29T15:54:53.164Z,81.23
2022-10-29T15:57:19.470Z,80.94
2022-10-29T15:59:45.975Z,80.90
2022-10-29T16:02:14.223Z,81.19
2022-10-29T16:04:40.738Z,80.91
2022-10-29T16:07:11.540Z,81.05
2022-10-29T16:09:39.219Z,80.69
2022-10-29T16:12:05.698Z,80.78
2022-10-29T16:14:31.991Z,80.64
2022-10-29T16:16:58.304Z,80.79
2022-10-29T16:19:24.641Z,80.63
2022-10-29T16:21:50.965Z,80.66
2022-10-29T16:24:17.438Z,80.71
2022-10-29T16:26:43.839Z,80.85
2022-10-29T16:29:10.606Z,80.69
2022-10-29T16:31:37.050Z,80.69
2022-10-29T16:34:05.006Z,80.54
2022-10-29T16:36:31.306Z,80.87
2022-10-29T16:38:57.630Z,80.81
2022-10-29T16:41:23.969Z,80.90
2022-10-29T16:43:50.315Z,80.93
2022-10-29T16:46:17.170Z,81.25
2022-10-29T16:48:43.596Z,81.29
2022-10-29T16:51:09.924Z,81.16
2022-10-29T16:53:36.527Z,81.44
2022-10-29T16:56:03.400Z,81.84
2022-10-29T16:58:29.731Z,81.82
2022-10-29T17:01:07.746Z,81.76
2022-10-29T17:03:35.195Z,81.92
2022-10-29T17:06:07.440Z,82.14
2022-10-29T17:08:34.858Z,82.58
2022-10-29T17:11:02.402Z,82.67
2022-10-29T17:13:28.787Z,82.55
2022-10-29T17:15:55.408Z,82.74
2022-10-29T17:18:23.001Z,82.69
2022-10-29T17:20:59.978Z,83.02
2022-10-29T17:23:26.844Z,83.31
2022-10-29T17:25:54.669Z,83.14
2022-10-29T17:28:22.315Z,83.24
2022-10-29T17:30:49.086Z,83.13
2022-10-29T17:33:16.222Z,83.12
2022-10-29T17:35:43.381Z,83.21
2022-10-29T17:38:10.618Z,83.12
2022-10-29T17:40:37.025Z,83.24
2022-10-29T17:43:03.430Z,83.53
2022-10-29T17:45:29.795Z,83.48
2022-10-29T17:47:57.784Z,83.17
2022-10-29T17:50:25.734Z,83.30
2022-10-29T17:52:53.257Z,83.10
2022-10-29T17:55:19.743Z,83.49
2022-10-29T17:57:46.121Z,83.31
2022-10-29T18:00:12.937Z,83.44
2022-10-29T18:02:39.278Z,83.50
2022-10-29T18:05:05.802Z,83.31
2022-10-29T18:07:32.128Z,83.44
2022-10-29T18:09:58.441Z,83.33
2022-10-29T18:12:24.837Z,83.29
2022-10-29T18:14:51.129Z,83.41
2022-10-29T18:17:17.495Z,83.31
2022-10-29T18:19:43.935Z,83.39
2022-10-29T18:22:10.304Z,84.00
2022-10-29T18:24:36.611Z,84.05
2022-10-29T18:27:02.965Z,84.75
2022-10-29T18:29:29.277Z,84.38
2022-10-29T18:31:55.591Z,84.63
2022-10-29T18:34:22.030Z,84.74
2022-10-29T18:36:48.370Z,84.50
2022-10-29T18:39:14.663Z,84.11
2022-10-29T18:41:41.065Z,84.70
2022-10-29T18:44:08.450Z,84.67
2022-10-29T18:46:34.750Z,85.17
2022-10-29T18:49:01.091Z,85.38
2022-10-29T18:51:30.059Z,85.49
2022-10-29T18:54:00.316Z,85.25
2022-10-29T18:56:28.219Z,85.16
2022-10-29T18:58:55.569Z,85.65
2022-10-29T19:01:27.895Z,85.52
2022-10-29T19:03:56.842Z,85.55
2022-10-29T19:06:25.307Z,85.52
2022-10-29T19:08:51.687Z,85.77
2022-10-29T19:11:23.567Z,85.65
2022-10-29T19:13:54.707Z,86.30
2022-10-29T19:16:21.829Z,86.08
2022-10-29T19:18:48.537Z,86.11
2022-10-29T19:21:16.917Z,86.53
2022-10-29T19:23:43.963Z,86.50
2022-10-29T19:26:18.213Z,86.55
2022-10-29T19:28:46.352Z,86.90
2022-10-29T19:31:17.736Z,86.88
2022-10-29T19:33:51.581Z,86.86
2022-10-29T19:36:18.718Z,86.79
2022-10-29T19:38:45.200Z,87.04
2022-10-29T19:41:12.296Z,87.74
2022-10-29T19:43:39.278Z,87.01
2022-10-29T19:46:07.859Z,87.59
2022-10-29T19:48:34.535Z,87.05
2022-10-29T19:51:00.857Z,87.16
2022-10-29T19:53:27.450Z,87.52
2022-10-29T19:55:54.322Z,87.35
2022-10-29T19:58:23.256Z,87.52
2022-10-29T20:00:49.752Z,87.31
2022-10-29T20:03:17.282Z,87.45
2022-10-29T20:05:44.367Z,87.72
2022-10-29T20:08:15.677Z,87.51
2022-10-29T20:10:43.227Z,87.84
2022-10-29T20:13:09.549Z,87.84
2022-10-29T20:15:38.461Z,88.02
2022-10-29T20:18:04.995Z,87.91
2022-10-29T20:20:31.300Z,87.85
2022-10-29T20:22:59.519Z,87.99
2022-10-29T20:25:26.424Z,88.12
2022-10-29T20:27:52.759Z,87.70
2022-10-29T20:30:19.058Z,87.81
2022-10-29T20:32:45.401Z,87.84
2022-10-29T20:35:11.710Z,87.61
2022-10-29T20:37:38.013Z,87.72
2022-10-29T20:40:05.389Z,87.62
2022-10-29T20:42:31.743Z,87.62
2022-10-29T20:44:58.030Z,87.30
2022-10-29T20:47:24.371Z,87.33
2022-10-29T20:49:50.740Z,87.36
2022-10-29T20:52:17.059Z,87.35
2022-10-29T20:54:43.432Z,87.51
2022-10-29T20:57:09.819Z,87.38
2022-10-29T20:59:36.117Z,87.45
2022-10-29T21:02:02.845Z,87.10
2022-10-29T21:04:29.260Z,87.20
2022-10-29T21:06:55.574Z,87.21
2022-10-29T21:09:22.749Z,87.11
2022-10-29T21:11:49.070Z,86.70
2022-10-29T21:14:15.402Z,86.70
2022-10-29T21:16:41.749Z,86.26
2022-10-29T21:19:08.194Z,86.40
2022-10-29T21:21:34.551Z,86.31
2022-10-29T21:24:00.928Z,86.19
2022-10-29T21:26:28.220Z,86.28
2022-10-29T21:28:55.116Z,86.30
2022-10-29T21:31:22.938Z,86.23
2022-10-29T21:33:54.110Z,86.01
2022-10-29T21:36:21.166Z,86.49
2022-10-29T21:38:48.307Z,86.33
2022-10-29T21:41:15.465Z,86.54
2022-10-29T21:43:41.762Z,86.40
2022-10-29T21:46:08.163Z,86.39
2022-10-29T21:48:34.654Z,86.52
2022-10-29T21:51:05.769Z,87.13
2022-10-29T21:53:32.607Z,86.82
2022-10-29T21:56:01.079Z,86.34
2022-10-29T21:58:27.909Z,86.14
2022-10-29T22:01:16.782Z,86.26
2022-10-29T22:03:44.918Z,87.02
2022-10-29T22:06:22.317Z,86.63
2022-10-29T22:08:56.472Z,86.65
2022-10-29T22:11:23.563Z,86.57
2022-10-29T22:13:51.109Z,85.96
2022-10-29T22:16:17.698Z,86.75
2022-10-29T22:18:44.374Z,86.09
2022-10-29T22:21:21.546Z,86.68
2022-10-29T22:23:58.049Z,86.40
2022-10-29T22:26:27.382Z,86.82
2022-10-29T22:28:53.721Z,86.69
2022-10-29T22:31:21.468Z,86.93
2022-10-29T22:33:48.241Z,86.91
2022-10-29T22:36:22.931Z,86.88
2022-10-29T22:38:54.091Z,86.76
2022-10-29T22:41:20.409Z,86.77
2022-10-29T22:43:46.819Z,87.10
2022-10-29T22:46:15.275Z,86.67
2022-10-29T22:48:43.486Z,86.49
2022-10-29T22:51:16.605Z,86.60
2022-10-29T22:53:42.987Z,86.11
2022-10-29T22:56:23.541Z,86.53
2022-10-29T22:58:50.154Z,86.22
2022-10-29T23:01:19.054Z,86.16
2022-10-29T23:03:46.148Z,86.48
2022-10-29T23:06:15.821Z,86.99
2022-10-29T23:08:44.275Z,86.69
2022-10-29T23:11:21.408Z,86.65
2022-10-29T23:13:59.806Z,86.71
2022-10-29T23:16:29.278Z,86.54
2022-10-29T23:19:02.033Z,86.28
2022-10-29T23:21:28.936Z,86.70
2022-10-29T23:23:55.787Z,87.17
2022-10-29T23:26:23.797Z,86.70
2022-10-29T23:28:50.227Z,87.20
2022-10-29T23:31:23.750Z,87.08
2022-10-29T23:33:52.958Z,86.69
2022-10-29T23:36:21.654Z,86.06
2022-10-29T23:38:48.724Z,86.29
2022-10-29T23:41:15.285Z,87.20
2022-10-29T23:43:41.612Z,87.40
2022-10-29T23:46:08.162Z,86.28
2022-10-29T23:48:34.530Z,86.93
2022-10-29T23:51:00.882Z,87.29
2022-10-29T23:53:27.213Z,86.89
2022-10-29T23:55:53.583Z,87.18
2022-10-29T23:58:19.998Z,86.92
